createdAt,value
2022-10-21T00:00:45.939Z,40.20
2022-10-21T00:01:45.951Z,38.90
2022-10-21T00:02:45.952Z,38.30
2022-10-21T00:03:45.930Z,35.60
2022-10-21T00:04:45.912Z,37.40
2022-10-21T00:05:45.899Z,33.70
2022-10-21T00:06:45.880Z,36.30
2022-10-21T00:07:45.895Z,32.90
2022-10-21T00:08:45.952Z,35.80
2022-10-21T00:09:45.871Z,37.50
2022-10-21T00:10:45.837Z,31.80
2022-10-21T00:11:45.844Z,34.10
2022-10-21T00:12:45.811Z,31.30
2022-10-21T00:13:45.832Z,30.90
2022-10-21T00:14:46.628Z,28.50
2022-10-21T00:15:45.815Z,32.90
2022-10-21T00:16:45.769Z,31.80
2022-10-21T00:17:45.768Z,28.50
2022-10-21T00:18:45.740Z,35.70
2022-10-21T00:19:45.780Z,32.80
2022-10-21T00:20:45.740Z,35.20
2022-10-21T00:21:45.732Z,30.80
2022-10-21T00:22:45.710Z,29.90
2022-10-21T00:23:45.703Z,28.90
2022-10-21T00:24:45.699Z,33.60
2022-10-21T00:25:45.701Z,33.40
2022-10-21T00:26:45.656Z,30.50
2022-10-21T00:27:45.663Z,26.10
2022-10-21T00:28:45.631Z,24.90
2022-10-21T00:29:45.641Z,28.30
2022-10-21T00:30:45.630Z,26.10
2022-10-21T00:31:45.639Z,28.50
2022-10-21T00:32:45.600Z,24.50
2022-10-21T00:33:45.610Z,25.30
2022-10-21T00:34:46.076Z,25.60
2022-10-21T00:35:45.614Z,24.50
2022-10-21T00:36:45.569Z,27.90
2022-10-21T00:37:45.559Z,21.60
2022-10-21T00:38:45.540Z,23.80
2022-10-21T00:39:45.530Z,23.40
2022-10-21T00:40:45.517Z,23.60
2022-10-21T00:41:45.530Z,21.00
2022-10-21T00:42:46.746Z,21.80
2022-10-21T00:43:45.500Z,18.10
2022-10-21T00:44:45.490Z,17.00
2022-10-21T00:45:45.479Z,20.00
2022-10-21T00:46:45.449Z,22.30
2022-10-21T00:47:45.479Z,21.60
2022-10-21T00:48:45.442Z,20.00
2022-10-21T00:49:45.434Z,15.90
2022-10-21T00:50:45.409Z,17.60
2022-10-21T00:51:45.408Z,17.80
2022-10-21T00:52:45.470Z,20.40
2022-10-21T00:53:45.416Z,14.10
2022-10-21T00:54:45.357Z,14.20
2022-10-21T00:55:45.480Z,16.70
2022-10-21T00:56:45.509Z,15.70
2022-10-21T00:57:45.343Z,15.60
2022-10-21T00:58:45.329Z,16.30
2022-10-21T00:59:45.327Z,16.10
2022-10-21T01:00:45.331Z,19.30
2022-10-21T01:01:45.292Z,15.70
2022-10-21T01:02:45.263Z,16.30
2022-10-21T01:03:45.272Z,14.80
2022-10-21T01:04:45.270Z,19.20
2022-10-21T01:05:45.294Z,13.50
2022-10-21T01:06:45.222Z,14.90
2022-10-21T01:07:45.543Z,14.90
2022-10-21T01:08:45.277Z,12.90
2022-10-21T01:09:45.202Z,13.80
2022-10-21T01:10:45.181Z,18.10
2022-10-21T01:11:45.179Z,17.80
2022-10-21T01:12:45.166Z,20.00
2022-10-21T01:13:45.178Z,17.70
2022-10-21T01:14:45.138Z,18.80
2022-10-21T01:15:45.157Z,19.30
2022-10-21T01:16:48.059Z,19.40
2022-10-21T01:17:45.796Z,13.80
2022-10-21T01:18:45.079Z,20.50
2022-10-21T01:19:45.091Z,17.10
2022-10-21T01:20:45.067Z,18.10
2022-10-21T01:21:45.083Z,18.90
2022-10-21T01:22:45.040Z,16.40
2022-10-21T01:23:45.041Z,21.00
2022-10-21T01:24:45.031Z,22.20
2022-10-21T01:25:45.048Z,20.40
2022-10-21T01:26:45.011Z,17.40
2022-10-21T01:27:44.999Z,19.70
2022-10-21T01:28:44.979Z,25.30
2022-10-21T01:29:45.001Z,24.30
2022-10-21T01:30:44.961Z,22.00
2022-10-21T01:31:44.959Z,19.70
2022-10-21T01:32:44.929Z,16.50
2022-10-21T01:33:44.951Z,21.30
2022-10-21T01:34:44.931Z,22.70
2022-10-21T01:35:44.919Z,25.60
2022-10-21T01:36:45.668Z,23.10
2022-10-21T01:37:45.865Z,26.10
2022-10-21T01:38:44.890Z,27.90
2022-10-21T01:39:44.870Z,23.10
2022-10-21T01:40:44.839Z,21.60
2022-10-21T01:41:44.947Z,20.10
2022-10-21T01:42:44.829Z,32.50
2022-10-21T01:43:44.837Z,22.50
2022-10-21T01:44:44.799Z,23.80
2022-10-21T01:45:44.800Z,25.50
2022-10-21T01:46:44.781Z,25.70
2022-10-21T01:47:44.794Z,29.20
2022-10-21T01:48:44.749Z,22.90
2022-10-21T01:49:44.750Z,23.70
2022-10-21T01:50:44.739Z,24.20
2022-10-21T01:51:44.757Z,26.20
2022-10-21T01:52:44.726Z,24.60
2022-10-21T01:53:44.729Z,31.50
2022-10-21T01:54:44.689Z,31.40
2022-10-21T01:55:44.696Z,28.90
2022-10-21T01:56:44.695Z,25.40
2022-10-21T01:57:44.730Z,27.10
2022-10-21T01:58:44.668Z,31.50
2022-10-21T01:59:44.658Z,33.90
2022-10-21T02:00:44.678Z,36.50
2022-10-21T02:01:44.629Z,24.60
2022-10-21T02:02:44.604Z,29.60
2022-10-21T02:03:44.607Z,31.50
2022-10-21T02:04:44.580Z,22.30
2022-10-21T02:05:44.579Z,160.00
2022-10-21T02:06:44.579Z,46.60
2022-10-21T02:07:44.570Z,27.90
2022-10-21T02:08:44.572Z,42.90
2022-10-21T02:09:44.540Z,41.10
2022-10-21T02:10:44.523Z,26.60
2022-10-21T02:11:44.509Z,17.90
2022-10-21T02:12:44.496Z,20.00
2022-10-21T02:13:44.520Z,22.70
2022-10-21T02:14:44.484Z,32.10
2022-10-21T02:15:44.468Z,20.30
2022-10-21T02:16:44.451Z,39.30
2022-10-21T02:17:45.323Z,24.70
2022-10-21T02:18:45.228Z,47.70
2022-10-21T02:19:44.446Z,71.20
2022-10-21T02:20:44.407Z,45.90
2022-10-21T02:21:44.398Z,26.50
2022-10-21T02:22:44.404Z,32.10
2022-10-21T02:23:44.378Z,33.20
2022-10-21T02:24:44.349Z,25.30
2022-10-21T02:25:44.359Z,26.50
2022-10-21T02:26:44.342Z,23.70
2022-10-21T02:27:44.337Z,26.20
2022-10-21T02:28:44.326Z,22.50
2022-10-21T02:29:44.666Z,23.20
2022-10-21T02:30:44.297Z,24.20
2022-10-21T02:31:44.292Z,22.80
2022-10-21T02:32:44.272Z,32.80
2022-10-21T02:33:44.273Z,23.90
2022-10-21T02:34:44.258Z,19.90
2022-10-21T02:35:44.243Z,34.30
2022-10-21T02:36:44.218Z,19.20
2022-10-21T02:37:44.655Z,29.60
2022-10-21T02:38:44.218Z,23.20
2022-10-21T02:39:44.228Z,26.40
2022-10-21T02:40:44.175Z,25.50
2022-10-21T02:41:44.178Z,33.50
2022-10-21T02:42:44.148Z,24.40
2022-10-21T02:43:44.147Z,28.70
2022-10-21T02:44:44.879Z,25.20
2022-10-21T02:45:44.130Z,21.70
2022-10-21T02:46:44.117Z,25.40
2022-10-21T02:47:44.098Z,23.50
2022-10-21T02:48:44.079Z,18.70
2022-10-21T02:49:44.088Z,17.60
2022-10-21T02:50:44.068Z,17.30
2022-10-21T02:51:44.067Z,21.70
2022-10-21T02:52:44.028Z,22.30
2022-10-21T02:53:44.038Z,26.70
2022-10-21T02:54:44.009Z,20.30
2022-10-21T02:55:44.019Z,29.00
2022-10-21T02:56:44.003Z,28.60
2022-10-21T02:57:43.988Z,30.50
2022-10-21T02:58:44.457Z,35.10
2022-10-21T02:59:43.986Z,24.20
2022-10-21T03:00:43.993Z,26.70
2022-10-21T03:01:43.975Z,21.40
2022-10-21T03:02:43.930Z,22.20
2022-10-21T03:03:43.918Z,28.80
2022-10-21T03:04:43.935Z,27.10
2022-10-21T03:05:43.913Z,28.10
2022-10-21T03:06:43.879Z,26.40
2022-10-21T03:07:43.885Z,26.50
2022-10-21T03:08:43.896Z,25.30
2022-10-21T03:09:43.858Z,29.40
2022-10-21T03:10:43.827Z,39.80
2022-10-21T03:11:43.836Z,35.60
2022-10-21T03:12:43.818Z,34.20
2022-10-21T03:13:43.808Z,21.20
2022-10-21T03:14:43.788Z,23.30
2022-10-21T03:15:43.789Z,27.60
2022-10-21T03:16:43.766Z,25.00
2022-10-21T03:17:43.776Z,32.00
2022-10-21T03:18:43.747Z,21.20
2022-10-21T03:19:43.747Z,30.10
2022-10-21T03:20:43.717Z,26.10
2022-10-21T03:21:43.707Z,30.40
2022-10-21T03:22:43.718Z,28.10
2022-10-21T03:23:43.691Z,29.20
2022-10-21T03:24:43.687Z,24.60
2022-10-21T03:25:43.657Z,24.90
2022-10-21T03:26:43.666Z,26.80
2022-10-21T03:27:43.639Z,26.60
2022-10-21T03:28:43.650Z,19.30
2022-10-21T03:29:43.619Z,20.00
2022-10-21T03:30:43.619Z,19.10
2022-10-21T03:31:43.586Z,23.70
2022-10-21T03:32:43.608Z,22.60
2022-10-21T03:33:43.596Z,25.20
2022-10-21T03:34:43.577Z,23.80
2022-10-21T03:35:43.541Z,20.40
2022-10-21T03:36:43.580Z,19.80
2022-10-21T03:37:43.517Z,24.00
2022-10-21T03:38:43.536Z,20.20
2022-10-21T03:39:44.381Z,23.40
2022-10-21T03:40:43.618Z,23.40
2022-10-21T03:41:43.496Z,23.30
2022-10-21T03:42:43.488Z,19.00
2022-10-21T03:43:43.456Z,20.50
2022-10-21T03:44:43.466Z,21.70
2022-10-21T03:45:43.437Z,21.00
2022-10-21T03:46:43.447Z,27.60
2022-10-21T03:47:43.419Z,30.30
2022-10-21T03:48:43.416Z,26.00
2022-10-21T03:49:43.400Z,17.70
2022-10-21T03:50:43.396Z,22.40
2022-10-21T03:51:43.370Z,24.30
2022-10-21T03:52:43.384Z,22.10
2022-10-21T03:53:43.992Z,25.70
2022-10-21T03:54:43.362Z,17.00
2022-10-21T03:55:43.330Z,20.30
2022-10-21T03:56:43.317Z,26.10
2022-10-21T03:57:43.574Z,24.70
2022-10-21T03:58:44.075Z,26.60
2022-10-21T03:59:43.300Z,24.10
2022-10-21T04:00:44.128Z,24.30
2022-10-21T04:01:43.413Z,23.40
2022-10-21T04:02:43.263Z,21.00
2022-10-21T04:03:43.238Z,22.20
2022-10-21T04:04:43.377Z,30.90
2022-10-21T04:05:43.248Z,35.30
2022-10-21T04:06:43.228Z,38.60
2022-10-21T04:07:43.186Z,26.60
2022-10-21T04:08:44.211Z,23.90
2022-10-21T04:09:43.158Z,27.70
2022-10-21T04:10:43.266Z,31.00
2022-10-21T04:11:43.162Z,32.60
2022-10-21T04:12:43.143Z,27.90
2022-10-21T04:13:43.114Z,32.40
2022-10-21T04:14:43.137Z,33.90
2022-10-21T04:15:43.095Z,31.40
2022-10-21T04:16:43.104Z,27.20
2022-10-21T04:17:43.076Z,24.90
2022-10-21T04:18:43.086Z,26.50
2022-10-21T04:19:43.847Z,31.80
2022-10-21T04:20:43.068Z,33.70
2022-10-21T04:21:43.176Z,25.70
2022-10-21T04:22:43.039Z,27.10
2022-10-21T04:23:43.006Z,26.10
2022-10-21T04:24:43.007Z,33.70
2022-10-21T04:25:42.978Z,24.30
2022-10-21T04:26:42.997Z,29.60
2022-10-21T04:27:42.993Z,27.70
2022-10-21T04:28:42.956Z,33.90
2022-10-21T04:29:42.927Z,27.90
2022-10-21T04:30:42.938Z,35.90
2022-10-21T04:31:42.956Z,31.20
2022-10-21T04:32:42.948Z,32.40
2022-10-21T04:33:42.887Z,34.70
2022-10-21T04:34:42.903Z,38.00
2022-10-21T04:35:42.866Z,36.30
2022-10-21T04:36:42.875Z,27.80
2022-10-21T04:37:42.877Z,28.30
2022-10-21T04:38:42.870Z,28.40
2022-10-21T04:39:42.816Z,29.00
2022-10-21T04:40:42.836Z,29.60
2022-10-21T04:41:43.526Z,25.30
2022-10-21T04:42:42.827Z,25.60
2022-10-21T04:43:42.776Z,23.70
2022-10-21T04:44:42.780Z,25.00
2022-10-21T04:45:42.770Z,29.70
2022-10-21T04:46:42.768Z,28.60
2022-10-21T04:47:42.743Z,32.00
2022-10-21T04:48:42.735Z,27.70
2022-10-21T04:49:42.720Z,26.00
2022-10-21T04:50:42.724Z,30.00
2022-10-21T04:51:42.687Z,31.00
2022-10-21T04:52:42.687Z,26.60
2022-10-21T04:53:42.665Z,28.90
2022-10-21T04:54:42.695Z,34.20
2022-10-21T04:55:42.648Z,34.10
2022-10-21T04:56:42.647Z,27.50
2022-10-21T04:57:42.628Z,23.60
2022-10-21T04:58:42.632Z,32.40
2022-10-21T04:59:42.673Z,31.00
2022-10-21T05:00:43.552Z,29.50
2022-10-21T05:01:43.399Z,33.50
2022-10-21T05:02:43.329Z,32.60
2022-10-21T05:03:43.470Z,27.60
2022-10-21T05:04:42.576Z,29.00
2022-10-21T05:05:42.536Z,24.90
2022-10-21T05:06:42.815Z,30.60
2022-10-21T05:07:42.866Z,29.70
2022-10-21T05:08:43.350Z,32.90
2022-10-21T05:09:43.420Z,33.50
2022-10-21T05:10:42.495Z,34.70
2022-10-21T05:11:43.249Z,28.80
2022-10-21T05:12:42.481Z,41.60
2022-10-21T05:13:42.446Z,52.40
2022-10-21T05:14:42.533Z,33.80
2022-10-21T05:15:42.425Z,31.20
2022-10-21T05:16:42.473Z,30.30
2022-10-21T05:17:42.394Z,30.10
2022-10-21T05:18:42.415Z,22.90
2022-10-21T05:19:42.473Z,26.00
2022-10-21T05:20:42.396Z,32.20
2022-10-21T05:21:42.389Z,34.30
2022-10-21T05:22:42.589Z,31.70
2022-10-21T05:23:42.345Z,40.50
2022-10-21T05:24:42.335Z,47.60
2022-10-21T05:25:42.320Z,33.50
2022-10-21T05:26:42.313Z,33.00
2022-10-21T05:27:42.337Z,38.80
2022-10-21T05:28:42.281Z,28.90
2022-10-21T05:29:42.266Z,30.40
2022-10-21T05:31:42.371Z,32.80
2022-10-21T05:32:44.527Z,30.00
2022-10-21T05:33:43.214Z,36.10
2022-10-21T05:34:42.239Z,30.40
2022-10-21T05:35:42.207Z,23.60
2022-10-21T05:36:42.194Z,26.60
2022-10-21T05:37:42.175Z,24.40
2022-10-21T05:38:42.183Z,26.30
2022-10-21T05:40:51.605Z,32.00
2022-10-21T05:41:46.989Z,35.00
2022-10-21T05:42:43.046Z,33.50
2022-10-21T05:43:42.125Z,28.00
2022-10-21T05:44:42.116Z,29.90
2022-10-21T05:45:42.077Z,31.90
2022-10-21T05:46:42.099Z,29.80
2022-10-21T05:47:42.076Z,29.30
2022-10-21T05:48:42.088Z,39.20
2022-10-21T05:49:42.040Z,30.70
2022-10-21T05:50:42.038Z,27.30
2022-10-21T05:51:42.023Z,28.90
2022-10-21T05:52:42.150Z,40.90
2022-10-21T05:53:42.007Z,37.10
2022-10-21T05:54:42.005Z,41.70
2022-10-21T05:55:41.976Z,40.00
2022-10-21T05:56:41.985Z,24.20
2022-10-21T05:57:41.981Z,29.20
2022-10-21T05:58:41.966Z,35.70
2022-10-21T05:59:41.926Z,24.90
2022-10-21T06:00:41.987Z,27.30
2022-10-21T06:01:42.120Z,27.40
2022-10-21T06:02:42.669Z,28.60
2022-10-21T06:03:41.906Z,26.40
2022-10-21T06:04:41.886Z,27.80
2022-10-21T06:05:41.865Z,25.10
2022-10-21T06:06:41.891Z,31.60
2022-10-21T06:07:42.153Z,27.00
2022-10-21T06:08:41.908Z,37.90
2022-10-21T06:09:41.809Z,31.30
2022-10-21T06:10:41.840Z,33.10
2022-10-21T06:11:41.817Z,29.60
2022-10-21T06:12:41.787Z,31.40
2022-10-21T06:13:41.784Z,28.40
2022-10-21T06:14:41.790Z,27.10
2022-10-21T06:15:41.728Z,32.60
2022-10-21T06:16:41.747Z,27.10
2022-10-21T06:17:41.972Z,30.60
2022-10-21T06:18:41.767Z,25.30
2022-10-21T06:19:43.217Z,35.00
2022-10-21T06:20:41.719Z,50.20
2022-10-21T06:21:41.697Z,41.80
2022-10-21T06:22:41.693Z,38.00
2022-10-21T06:23:42.437Z,30.40
2022-10-21T06:24:41.756Z,26.50
2022-10-21T06:25:42.506Z,28.20
2022-10-21T06:26:41.659Z,25.60
2022-10-21T06:27:41.832Z,27.70
2022-10-21T06:28:41.620Z,28.70
2022-10-21T06:29:41.586Z,30.50
2022-10-21T06:30:41.599Z,31.10
2022-10-21T06:31:41.584Z,37.00
2022-10-21T06:32:42.026Z,29.50
2022-10-21T06:33:41.553Z,36.30
2022-10-21T06:34:41.555Z,34.70
2022-10-21T06:35:41.532Z,26.70
2022-10-21T06:36:41.543Z,25.90
2022-10-21T06:37:41.641Z,30.10
2022-10-21T06:38:41.496Z,24.40
2022-10-21T06:39:41.478Z,33.30
2022-10-21T06:40:41.498Z,37.30
2022-10-21T06:41:41.486Z,40.10
2022-10-21T06:42:41.465Z,29.10
2022-10-21T06:43:41.450Z,40.70
2022-10-21T06:44:41.626Z,35.50
2022-10-21T06:45:41.406Z,38.80
2022-10-21T06:46:41.460Z,36.40
2022-10-21T06:47:41.898Z,35.90
2022-10-21T06:48:41.412Z,40.10
2022-10-21T06:49:41.364Z,36.70
2022-10-21T06:50:41.366Z,34.90
2022-10-21T06:51:41.349Z,36.00
2022-10-21T06:52:41.335Z,31.90
2022-10-21T06:53:41.357Z,31.30
2022-10-21T06:54:41.322Z,40.10
2022-10-21T06:55:41.306Z,37.40
2022-10-21T06:56:41.302Z,35.20
2022-10-21T06:57:41.598Z,32.80
2022-10-21T06:58:41.375Z,47.60
2022-10-21T06:59:41.271Z,48.00
2022-10-21T07:00:41.246Z,48.90
2022-10-21T07:01:58.756Z,49.30
2022-10-21T07:02:42.244Z,45.30
2022-10-21T07:03:41.926Z,49.70
2022-10-21T07:04:42.085Z,47.90
2022-10-21T07:05:41.241Z,48.80
2022-10-21T07:06:41.273Z,41.10
2022-10-21T07:07:41.573Z,43.90
2022-10-21T07:08:53.912Z,45.50
2022-10-21T07:09:42.179Z,41.30
2022-10-21T07:10:41.178Z,44.80
2022-10-21T07:11:41.133Z,50.20
2022-10-21T07:12:41.117Z,51.00
2022-10-21T07:13:41.094Z,45.10
2022-10-21T07:14:41.087Z,45.30
2022-10-21T07:15:41.109Z,35.30
2022-10-21T07:16:41.457Z,40.00
2022-10-21T07:17:41.226Z,45.90
2022-10-21T07:18:42.640Z,38.30
2022-10-21T07:19:41.034Z,38.80
2022-10-21T07:20:41.226Z,29.00
2022-10-21T07:21:41.006Z,36.50
2022-10-21T07:22:41.004Z,31.20
2022-10-21T07:23:41.796Z,32.90
2022-10-21T07:24:41.710Z,32.40
2022-10-21T07:25:40.966Z,35.50
2022-10-21T07:26:40.947Z,31.70
2022-10-21T07:27:43.528Z,33.50
2022-10-21T07:28:41.924Z,25.90
2022-10-21T07:29:40.895Z,35.20
2022-10-21T07:30:40.926Z,31.10
2022-10-21T07:31:40.873Z,36.90
2022-10-21T07:32:40.884Z,33.90
2022-10-21T07:33:40.875Z,29.40
2022-10-21T07:34:40.879Z,33.40
2022-10-21T07:35:40.855Z,41.20
2022-10-21T07:36:40.834Z,32.60
2022-10-21T07:37:41.250Z,29.60
2022-10-21T07:38:40.814Z,33.90
2022-10-21T07:39:40.806Z,31.70
2022-10-21T07:40:40.786Z,37.70
2022-10-21T07:41:40.785Z,27.70
2022-10-21T07:42:40.764Z,27.30
2022-10-21T07:43:40.768Z,31.40
2022-10-21T07:44:40.862Z,29.90
2022-10-21T07:45:40.783Z,34.70
2022-10-21T07:46:40.756Z,36.50
2022-10-21T07:47:41.027Z,34.00
2022-10-21T07:48:40.697Z,34.00
2022-10-21T07:49:40.696Z,45.70
2022-10-21T07:50:40.673Z,46.60
2022-10-21T07:51:40.666Z,52.20
2022-10-21T07:52:43.741Z,55.10
2022-10-21T07:53:41.665Z,57.80
2022-10-21T07:54:40.635Z,51.50
2022-10-21T07:55:40.626Z,39.20
2022-10-21T07:56:40.612Z,39.00
2022-10-21T07:57:40.873Z,39.10
2022-10-21T07:58:40.658Z,32.10
2022-10-21T07:59:40.596Z,43.90
2022-10-21T08:00:40.652Z,36.30
2022-10-21T08:01:40.740Z,28.00
2022-10-21T08:02:40.898Z,38.80
2022-10-21T08:03:40.608Z,42.00
2022-10-21T08:04:40.684Z,38.60
2022-10-21T08:05:40.624Z,43.70
2022-10-21T08:06:40.929Z,46.70
2022-10-21T08:07:41.585Z,38.40
2022-10-21T08:08:40.679Z,48.30
2022-10-21T08:09:40.585Z,39.40
2022-10-21T08:10:40.697Z,46.30
2022-10-21T08:11:40.469Z,45.40
2022-10-21T08:12:40.913Z,50.10
2022-10-21T08:13:40.627Z,41.90
2022-10-21T08:14:40.446Z,39.20
2022-10-21T08:15:40.405Z,43.90
2022-10-21T08:16:40.479Z,40.90
2022-10-21T08:17:40.383Z,40.70
2022-10-21T08:18:40.384Z,40.40
2022-10-21T08:19:40.500Z,46.30
2022-10-21T08:20:40.334Z,37.80
2022-10-21T08:21:40.354Z,40.40
2022-10-21T08:22:40.823Z,49.70
2022-10-21T08:23:40.328Z,41.60
2022-10-21T08:24:42.353Z,48.90
2022-10-21T08:25:41.235Z,42.40
2022-10-21T08:26:41.125Z,40.90
2022-10-21T08:27:40.278Z,41.00
2022-10-21T08:28:40.255Z,34.30
2022-10-21T08:29:40.280Z,37.30
2022-10-21T08:30:40.225Z,39.90
2022-10-21T08:31:40.255Z,42.40
2022-10-21T08:32:40.553Z,45.00
2022-10-21T08:33:40.228Z,43.30
2022-10-21T08:34:40.213Z,59.10
2022-10-21T08:35:40.214Z,55.40
2022-10-21T08:36:40.151Z,39.20
2022-10-21T08:37:40.210Z,39.90
2022-10-21T08:38:40.223Z,35.60
2022-10-21T08:39:40.154Z,35.50
2022-10-21T08:40:40.147Z,41.50
2022-10-21T08:41:40.125Z,41.00
2022-10-21T08:42:40.381Z,47.70
2022-10-21T08:43:40.116Z,44.10
2022-10-21T08:44:40.064Z,44.10
2022-10-21T08:45:40.086Z,49.50
2022-10-21T08:46:40.103Z,40.30
2022-10-21T08:47:40.369Z,39.90
2022-10-21T08:48:40.026Z,44.50
2022-10-21T08:49:40.036Z,38.80
2022-10-21T08:50:40.017Z,36.90
2022-10-21T08:51:40.100Z,22.10
2022-10-21T08:52:40.003Z,16.30
2022-10-21T08:53:40.001Z,20.40
2022-10-21T08:54:39.985Z,24.00
2022-10-21T08:55:39.982Z,21.70
2022-10-21T08:56:40.105Z,22.00
2022-10-21T08:57:40.236Z,17.60
2022-10-21T08:58:39.922Z,22.70
2022-10-21T08:59:39.930Z,18.20
2022-10-21T09:00:39.893Z,14.40
2022-10-21T09:01:39.903Z,17.70
2022-10-21T09:02:39.884Z,21.40
2022-10-21T09:03:39.883Z,20.40
2022-10-21T09:04:39.865Z,19.40
2022-10-21T09:05:40.740Z,22.00
2022-10-21T09:06:39.848Z,21.60
2022-10-21T09:07:40.332Z,21.00
2022-10-21T09:08:39.867Z,17.90
2022-10-21T09:09:39.824Z,21.20
2022-10-21T09:10:39.801Z,27.30
2022-10-21T09:11:39.823Z,21.60
2022-10-21T09:12:39.755Z,17.50
2022-10-21T09:13:39.805Z,22.20
2022-10-21T09:14:39.765Z,25.30
2022-10-21T09:15:39.950Z,31.60
2022-10-21T09:16:39.746Z,26.40
2022-10-21T09:17:40.023Z,24.90
2022-10-21T09:18:39.694Z,22.00
2022-10-21T09:19:39.706Z,18.10
2022-10-21T09:20:39.688Z,14.90
2022-10-21T09:21:39.734Z,21.50
2022-10-21T09:22:39.652Z,11.10
2022-10-21T09:23:39.671Z,16.30
2022-10-21T09:24:39.635Z,13.90
2022-10-21T09:25:39.634Z,16.40
2022-10-21T09:26:39.646Z,13.40
2022-10-21T09:27:55.556Z,13.30
2022-10-21T09:28:40.582Z,12.10
2022-10-21T09:29:39.592Z,13.90
2022-10-21T09:30:39.563Z,15.10
2022-10-21T09:31:39.574Z,15.50
2022-10-21T09:32:39.533Z,10.50
2022-10-21T09:33:39.543Z,12.50
2022-10-21T09:34:39.514Z,9.60
2022-10-21T09:35:39.524Z,9.50
2022-10-21T09:36:39.484Z,9.50
2022-10-21T09:37:39.816Z,8.90
2022-10-21T09:38:39.476Z,7.90
2022-10-21T09:39:39.490Z,8.60
2022-10-21T09:40:39.454Z,9.50
2022-10-21T09:41:39.445Z,10.30
2022-10-21T09:42:47.289Z,8.10
2022-10-21T09:43:40.464Z,11.30
2022-10-21T09:44:39.403Z,18.30
2022-10-21T09:45:39.402Z,8.50
2022-10-21T09:46:40.102Z,8.20
2022-10-21T09:47:40.263Z,11.10
2022-10-21T09:48:54.025Z,12.30
2022-10-21T09:50:05.988Z,7.80
2022-10-21T09:50:40.354Z,8.10
2022-10-21T09:51:39.323Z,6.70
2022-10-21T09:52:39.632Z,7.50
2022-10-21T09:53:39.366Z,5.00
2022-10-21T09:54:39.305Z,5.50
2022-10-21T09:55:39.285Z,7.00
2022-10-21T09:56:39.281Z,7.30
2022-10-21T09:57:39.284Z,6.40
2022-10-21T09:58:39.244Z,5.80
2022-10-21T09:59:39.280Z,6.00
2022-10-21T10:00:39.217Z,7.00
2022-10-21T10:01:39.257Z,6.80
2022-10-21T10:02:39.465Z,5.00
2022-10-21T10:03:39.203Z,6.70
2022-10-21T10:04:39.176Z,6.30
2022-10-21T10:05:39.185Z,5.60
2022-10-21T10:06:39.147Z,7.80
2022-10-21T10:07:39.883Z,5.40
2022-10-21T10:08:39.374Z,5.50
2022-10-21T10:09:39.143Z,5.30
2022-10-21T10:10:39.123Z,6.30
2022-10-21T10:11:39.118Z,6.20
2022-10-21T10:12:39.443Z,4.80
2022-10-21T10:13:39.103Z,5.00
2022-10-21T10:14:39.064Z,5.90
2022-10-21T10:15:39.072Z,5.30
2022-10-21T10:16:39.034Z,6.30
2022-10-21T10:17:39.045Z,5.30
2022-10-21T10:18:39.008Z,7.90
2022-10-21T10:19:39.016Z,7.30
2022-10-21T10:20:39.012Z,11.50
2022-10-21T10:21:39.037Z,7.30
2022-10-21T10:22:39.251Z,7.00
2022-10-21T10:23:38.996Z,7.80
2022-10-21T10:24:38.944Z,7.00
2022-10-21T10:25:38.946Z,7.90
2022-10-21T10:26:38.926Z,7.20
2022-10-21T10:27:39.757Z,7.70
2022-10-21T10:29:38.923Z,8.70
2022-10-21T10:30:38.884Z,7.10
2022-10-21T10:31:38.876Z,9.80
2022-10-21T10:32:39.038Z,10.60
2022-10-21T10:33:38.863Z,9.20
2022-10-21T10:34:38.827Z,6.90
2022-10-21T10:35:38.834Z,6.60
2022-10-21T10:36:38.817Z,7.80
2022-10-21T10:37:38.916Z,7.00
2022-10-21T10:38:38.796Z,6.80
2022-10-21T10:39:38.785Z,10.00
2022-10-21T10:40:38.808Z,7.00
2022-10-21T10:41:38.865Z,7.30
2022-10-21T10:42:39.041Z,5.90
2022-10-21T10:43:38.776Z,5.40
2022-10-21T10:44:38.784Z,7.00
2022-10-21T10:45:38.753Z,6.60
2022-10-21T10:46:38.753Z,5.10
2022-10-21T10:47:38.853Z,4.20
2022-10-21T10:48:39.545Z,4.70
2022-10-21T10:49:39.442Z,4.80
2022-10-21T10:50:38.666Z,5.40
2022-10-21T10:51:38.744Z,5.50
2022-10-21T10:52:38.634Z,6.00
2022-10-21T10:53:38.642Z,7.40
2022-10-21T10:54:38.634Z,6.60
2022-10-21T10:55:38.659Z,8.80
2022-10-21T10:56:38.595Z,10.40
2022-10-21T10:57:44.380Z,9.10
2022-10-21T10:58:39.576Z,8.50
2022-10-21T10:59:38.573Z,9.40
2022-10-21T11:00:39.471Z,6.20
2022-10-21T11:01:38.578Z,7.30
2022-10-21T11:02:38.815Z,4.50
2022-10-21T11:03:41.373Z,5.30
2022-10-21T11:04:38.508Z,4.20
2022-10-21T11:05:39.444Z,4.40
2022-10-21T11:06:38.644Z,5.50
2022-10-21T11:07:39.110Z,7.00
2022-10-21T11:08:38.512Z,10.80
2022-10-21T11:09:39.304Z,10.30
2022-10-21T11:10:38.499Z,4.10
2022-10-21T11:11:38.508Z,5.40
2022-10-21T11:12:38.478Z,4.90
2022-10-21T11:13:41.895Z,5.80
2022-10-21T11:14:38.405Z,3.90
2022-10-21T11:15:38.525Z,3.60
2022-10-21T11:16:45.012Z,12.90
2022-10-21T11:17:39.622Z,3.40
2022-10-21T11:18:38.358Z,4.30
2022-10-21T11:19:38.365Z,2.30
2022-10-21T11:20:38.345Z,4.90
2022-10-21T11:21:38.330Z,4.30
2022-10-21T11:22:38.327Z,4.50
2022-10-21T11:23:38.305Z,5.70
2022-10-21T11:24:38.288Z,5.20
2022-10-21T11:25:38.339Z,4.30
2022-10-21T11:26:38.289Z,4.60
2022-10-21T11:27:39.470Z,4.40
2022-10-21T11:28:38.225Z,5.50
2022-10-21T11:29:39.176Z,5.00
2022-10-21T11:30:39.074Z,5.90
2022-10-21T11:31:48.772Z,6.40
2022-10-21T11:32:39.205Z,4.40
2022-10-21T11:33:38.216Z,4.90
2022-10-21T11:34:38.167Z,3.20
2022-10-21T11:35:38.175Z,3.90
2022-10-21T11:36:38.166Z,3.10
2022-10-21T11:37:38.438Z,3.70
2022-10-21T11:38:38.144Z,4.00
2022-10-21T11:39:38.133Z,5.20
2022-10-21T11:40:38.105Z,5.90
2022-10-21T11:41:38.185Z,4.30
2022-10-21T11:42:38.389Z,5.10
2022-10-21T11:43:38.093Z,3.30
2022-10-21T11:44:38.069Z,7.70
2022-10-21T11:45:38.065Z,3.80
2022-10-21T11:46:38.035Z,4.70
2022-10-21T11:47:38.056Z,4.40
2022-10-21T11:48:38.038Z,4.70
2022-10-21T11:49:38.054Z,5.00
2022-10-21T11:50:38.957Z,4.20
2022-10-21T11:51:38.024Z,6.50
2022-10-21T11:52:38.372Z,3.20
2022-10-21T11:53:37.974Z,4.60
2022-10-21T11:54:43.629Z,5.50
2022-10-21T11:55:38.947Z,3.80
2022-10-21T11:56:37.949Z,5.70
2022-10-21T11:57:37.942Z,7.00
2022-10-21T11:58:37.945Z,3.30
2022-10-21T11:59:37.945Z,3.90
2022-10-21T12:00:37.896Z,3.00
2022-10-21T12:01:37.873Z,3.50
2022-10-21T12:02:38.277Z,9.00
2022-10-21T12:03:37.867Z,4.00
2022-10-21T12:04:37.872Z,4.50
2022-10-21T12:05:37.865Z,5.20
2022-10-21T12:06:37.875Z,4.00
2022-10-21T12:07:37.827Z,5.50
2022-10-21T12:08:41.254Z,4.50
2022-10-21T12:09:38.809Z,3.40
2022-10-21T12:10:38.566Z,6.20
2022-10-21T12:11:38.478Z,4.80
2022-10-21T12:12:38.000Z,3.10
2022-10-21T12:13:37.754Z,3.40
2022-10-21T12:14:37.765Z,4.10
2022-10-21T12:15:37.737Z,5.00
2022-10-21T12:16:37.726Z,4.70
2022-10-21T12:17:38.235Z,3.90
2022-10-21T12:18:37.705Z,5.20
2022-10-21T12:19:37.678Z,4.30
2022-10-21T12:20:37.686Z,6.00
2022-10-21T12:21:37.660Z,3.20
2022-10-21T12:22:37.908Z,4.80
2022-10-21T12:23:37.637Z,5.00
2022-10-21T12:24:37.636Z,3.30
2022-10-21T12:25:37.619Z,3.20
2022-10-21T12:27:37.762Z,3.10
2022-10-21T12:28:37.576Z,4.30
2022-10-21T12:29:37.581Z,4.40
2022-10-21T12:30:38.437Z,7.10
2022-10-21T12:31:38.379Z,5.70
2022-10-21T12:32:38.716Z,4.80
2022-10-21T12:33:37.588Z,3.20
2022-10-21T12:34:38.325Z,6.00
2022-10-21T12:35:37.636Z,5.40
2022-10-21T12:36:37.530Z,2.10
2022-10-21T12:37:37.763Z,2.80
2022-10-21T12:38:37.629Z,3.30
2022-10-21T12:39:37.458Z,4.90
2022-10-21T12:40:37.471Z,3.50
2022-10-21T12:41:37.438Z,3.50
2022-10-21T12:42:37.432Z,5.20
2022-10-21T12:43:38.210Z,4.90
2022-10-21T12:44:38.177Z,4.70
2022-10-21T12:45:37.383Z,2.80
2022-10-21T12:46:39.957Z,4.70
2022-10-21T12:47:37.685Z,3.30
2022-10-21T12:48:38.239Z,3.90
2022-10-21T12:49:37.369Z,4.80
2022-10-21T12:50:38.057Z,5.50
2022-10-21T12:51:38.217Z,5.10
2022-10-21T12:52:37.408Z,4.40
2022-10-21T12:53:37.351Z,4.90
2022-10-21T12:54:37.318Z,5.00
2022-10-21T12:55:38.096Z,4.60
2022-10-21T12:56:37.272Z,6.40
2022-10-21T12:57:37.589Z,4.20
2022-10-21T12:58:37.253Z,2.80
2022-10-21T12:59:37.246Z,2.60
2022-10-21T13:00:37.272Z,3.50
2022-10-21T13:01:38.033Z,2.30
2022-10-21T13:02:37.491Z,3.00